sensor_id;sensor_type;location;lat;lon;timestamp;P1;durP1;ratioP1;P2;durP2;ratioP2
67902;SDS011;54708;43.612;1.568;2022-12-05T00:01:38;34.10;;;20.27;;
67902;SDS011;54708;43.612;1.568;2022-12-05T00:04:10;33.38;;;19.95;;
67902;SDS011;54708;43.612;1.568;2022-12-05T00:06:37;34.30;;;19.63;;
67902;SDS011;54708;43.612;1.568;2022-12-05T00:09:04;38.35;;;19.58;;
67902;SDS011;54708;43.612;1.568;2022-12-05T00:11:31;45.80;;;24.80;;
67902;SDS011;54708;43.612;1.568;2022-12-05T00:13:59;35.92;;;20.58;;
67902;SDS011;54708;43.612;1.568;2022-12-05T00:16:25;32.90;;;19.77;;
67902;SDS011;54708;43.612;1.568;2022-12-05T00:18:52;39.25;;;23.13;;
67902;SDS011;54708;43.612;1.568;2022-12-05T00:21:19;32.30;;;19.95;;
67902;SDS011;54708;43.612;1.568;2022-12-05T00:23:48;31.83;;;19.90;;
67902;SDS011;54708;43.612;1.568;2022-12-05T00:26:14;30.75;;;17.95;;
67902;SDS011;54708;43.612;1.568;2022-12-05T00:28:40;30.15;;;15.98;;
67902;SDS011;54708;43.612;1.568;2022-12-05T00:31:06;25.92;;;16.80;;
67902;SDS011;54708;43.612;1.568;2022-12-05T00:33:34;30.95;;;17.33;;
67902;SDS011;54708;43.612;1.568;2022-12-05T00:36:03;30.17;;;17.88;;
67902;SDS011;54708;43.612;1.568;2022-12-05T00:38:30;27.55;;;17.48;;
67902;SDS011;54708;43.612;1.568;2022-12-05T00:41:00;31.30;;;18.10;;
67902;SDS011;54708;43.612;1.568;2022-12-05T00:43:29;23.30;;;15.45;;
67902;SDS011;54708;43.612;1.568;2022-12-05T00:45:55;30.50;;;17.08;;
67902;SDS011;54708;43.612;1.568;2022-12-05T00:48:20;28.83;;;19.38;;
67902;SDS011;54708;43.612;1.568;2022-12-05T00:50:46;25.45;;;17.23;;
67902;SDS011;54708;43.612;1.568;2022-12-05T00:53:11;30.95;;;19.27;;
67902;SDS011;54708;43.612;1.568;2022-12-05T00:55:36;27.85;;;16.38;;
67902;SDS011;54708;43.612;1.568;2022-12-05T00:58:02;26.70;;;16.73;;
67902;SDS011;54708;43.612;1.568;2022-12-05T01:00:28;29.42;;;17.25;;
67902;SDS011;54708;43.612;1.568;2022-12-05T01:02:54;29.88;;;17.33;;
67902;SDS011;54708;43.612;1.568;2022-12-05T01:05:20;23.65;;;16.30;;
67902;SDS011;54708;43.612;1.568;2022-12-05T01:07:45;25.95;;;18.10;;
67902;SDS011;54708;43.612;1.568;2022-12-05T01:10:11;30.50;;;17.90;;
67902;SDS011;54708;43.612;1.568;2022-12-05T01:12:36;29.42;;;17.20;;
67902;SDS011;54708;43.612;1.568;2022-12-05T01:15:02;30.27;;;18.90;;
67902;SDS011;54708;43.612;1.568;2022-12-05T01:17:28;39.13;;;21.08;;
67902;SDS011;54708;43.612;1.568;2022-12-05T01:19:53;38.72;;;21.30;;
67902;SDS011;54708;43.612;1.568;2022-12-05T01:22:18;26.65;;;17.02;;
67902;SDS011;54708;43.612;1.568;2022-12-05T01:24:44;26.80;;;17.85;;
67902;SDS011;54708;43.612;1.568;2022-12-05T01:27:09;26.38;;;16.77;;
67902;SDS011;54708;43.612;1.568;2022-12-05T01:29:34;25.23;;;15.52;;
67902;SDS011;54708;43.612;1.568;2022-12-05T01:32:00;24.65;;;16.80;;
67902;SDS011;54708;43.612;1.568;2022-12-05T01:34:25;25.48;;;15.40;;
67902;SDS011;54708;43.612;1.568;2022-12-05T01:36:51;27.60;;;17.35;;
67902;SDS011;54708;43.612;1.568;2022-12-05T01:39:16;26.77;;;15.48;;
67902;SDS011;54708;43.612;1.568;2022-12-05T01:41:43;25.50;;;16.10;;
67902;SDS011;54708;43.612;1.568;2022-12-05T01:46:36;27.77;;;16.55;;
67902;SDS011;54708;43.612;1.568;2022-12-05T01:49:10;26.00;;;16.67;;
67902;SDS011;54708;43.612;1.568;2022-12-05T01:51:39;29.23;;;17.25;;
67902;SDS011;54708;43.612;1.568;2022-12-05T01:54:05;29.35;;;16.05;;
67902;SDS011;54708;43.612;1.568;2022-12-05T01:56:32;27.40;;;17.10;;
67902;SDS011;54708;43.612;1.568;2022-12-05T01:58:59;28.38;;;17.02;;
67902;SDS011;54708;43.612;1.568;2022-12-05T02:01:25;28.00;;;17.00;;
67902;SDS011;54708;43.612;1.568;2022-12-05T02:03:51;28.23;;;16.98;;
67902;SDS011;54708;43.612;1.568;2022-12-05T02:06:19;36.00;;;18.67;;
67902;SDS011;54708;43.612;1.568;2022-12-05T02:08:44;27.63;;;17.38;;
67902;SDS011;54708;43.612;1.568;2022-12-05T02:11:11;28.42;;;17.95;;
67902;SDS011;54708;43.612;1.568;2022-12-05T02:30:18;26.55;;;17.30;;
67902;SDS011;54708;43.612;1.568;2022-12-05T02:33:20;28.90;;;18.13;;
67902;SDS011;54708;43.612;1.568;2022-12-05T02:40:45;30.73;;;19.00;;
67902;SDS011;54708;43.612;1.568;2022-12-05T02:43:17;28.35;;;18.60;;
67902;SDS011;54708;43.612;1.568;2022-12-05T02:45:47;26.90;;;18.65;;
67902;SDS011;54708;43.612;1.568;2022-12-05T02:48:16;32.35;;;18.90;;
67902;SDS011;54708;43.612;1.568;2022-12-05T02:50:42;33.42;;;20.33;;
67902;SDS011;54708;43.612;1.568;2022-12-05T02:53:09;34.75;;;19.08;;
67902;SDS011;54708;43.612;1.568;2022-12-05T02:55:35;35.53;;;24.02;;
67902;SDS011;54708;43.612;1.568;2022-12-05T02:58:03;35.80;;;23.92;;
67902;SDS011;54708;43.612;1.568;2022-12-05T03:00:31;38.67;;;24.85;;
67902;SDS011;54708;43.612;1.568;2022-12-05T03:02:59;39.15;;;24.77;;
67902;SDS011;54708;43.612;1.568;2022-12-05T03:08:03;38.20;;;22.95;;
67902;SDS011;54708;43.612;1.568;2022-12-05T03:10:30;32.20;;;20.05;;
67902;SDS011;54708;43.612;1.568;2022-12-05T03:12:59;36.55;;;21.08;;
67902;SDS011;54708;43.612;1.568;2022-12-05T03:15:33;28.00;;;19.33;;
67902;SDS011;54708;43.612;1.568;2022-12-05T03:18:03;31.33;;;19.95;;
67902;SDS011;54708;43.612;1.568;2022-12-05T03:20:33;35.13;;;20.80;;
67902;SDS011;54708;43.612;1.568;2022-12-05T03:23:05;36.67;;;19.67;;
67902;SDS011;54708;43.612;1.568;2022-12-05T03:25:34;33.33;;;20.65;;
67902;SDS011;54708;43.612;1.568;2022-12-05T03:28:14;32.60;;;19.45;;
67902;SDS011;54708;43.612;1.568;2022-12-05T03:30:48;28.75;;;18.50;;
67902;SDS011;54708;43.612;1.568;2022-12-05T03:33:20;32.38;;;19.20;;
67902;SDS011;54708;43.612;1.568;2022-12-05T03:41:52;23.45;;;14.13;;
67902;SDS011;54708;43.612;1.568;2022-12-05T03:44:43;24.25;;;15.32;;
67902;SDS011;54708;43.612;1.568;2022-12-05T03:50:03;31.52;;;17.13;;
67902;SDS011;54708;43.612;1.568;2022-12-05T03:52:32;26.33;;;15.27;;
67902;SDS011;54708;43.612;1.568;2022-12-05T03:55:01;25.83;;;14.55;;
67902;SDS011;54708;43.612;1.568;2022-12-05T03:57:34;24.00;;;15.23;;
67902;SDS011;54708;43.612;1.568;2022-12-05T04:00:04;26.10;;;14.95;;
67902;SDS011;54708;43.612;1.568;2022-12-05T04:02:33;27.15;;;16.98;;
67902;SDS011;54708;43.612;1.568;2022-12-05T04:05:11;26.27;;;16.42;;
67902;SDS011;54708;43.612;1.568;2022-12-05T04:07:41;23.05;;;15.35;;
67902;SDS011;54708;43.612;1.568;2022-12-05T04:10:18;24.15;;;15.25;;
67902;SDS011;54708;43.612;1.568;2022-12-05T04:12:47;20.33;;;14.30;;
67902;SDS011;54708;43.612;1.568;2022-12-05T04:15:25;22.73;;;15.00;;
67902;SDS011;54708;43.612;1.568;2022-12-05T04:18:13;25.95;;;14.68;;
67902;SDS011;54708;43.612;1.568;2022-12-05T04:20:40;25.90;;;14.38;;
67902;SDS011;54708;43.612;1.568;2022-12-05T04:23:24;24.73;;;15.52;;
67902;SDS011;54708;43.612;1.568;2022-12-05T04:25:56;29.67;;;16.42;;
67902;SDS011;54708;43.612;1.568;2022-12-05T04:28:33;23.33;;;14.68;;
67902;SDS011;54708;43.612;1.568;2022-12-05T04:33:50;21.42;;;14.38;;
67902;SDS011;54708;43.612;1.568;2022-12-05T04:41:36;21.58;;;13.85;;
67902;SDS011;54708;43.612;1.568;2022-12-05T04:44:08;25.70;;;13.40;;
67902;SDS011;54708;43.612;1.568;2022-12-05T04:46:35;20.92;;;12.60;;
67902;SDS011;54708;43.612;1.568;2022-12-05T04:49:03;23.55;;;13.90;;
67902;SDS011;54708;43.612;1.568;2022-12-05T04:51:32;23.98;;;14.18;;
67902;SDS011;54708;43.612;1.568;2022-12-05T04:54:00;23.05;;;13.25;;
67902;SDS011;54708;43.612;1.568;2022-12-05T04:56:29;17.50;;;11.77;;
67902;SDS011;54708;43.612;1.568;2022-12-05T04:58:55;18.70;;;11.90;;
67902;SDS011;54708;43.612;1.568;2022-12-05T05:01:22;19.15;;;12.20;;
67902;SDS011;54708;43.612;1.568;2022-12-05T05:03:56;19.48;;;12.15;;
67902;SDS011;54708;43.612;1.568;2022-12-05T05:06:24;16.00;;;10.63;;
67902;SDS011;54708;43.612;1.568;2022-12-05T05:08:52;19.30;;;11.30;;
67902;SDS011;54708;43.612;1.568;2022-12-05T05:11:23;17.45;;;11.82;;
67902;SDS011;54708;43.612;1.568;2022-12-05T05:13:50;15.65;;;10.52;;
67902;SDS011;54708;43.612;1.568;2022-12-05T05:16:17;15.48;;;11.23;;
67902;SDS011;54708;43.612;1.568;2022-12-05T05:18:45;18.35;;;11.55;;
67902;SDS011;54708;43.612;1.568;2022-12-05T05:21:18;15.00;;;10.73;;
67902;SDS011;54708;43.612;1.568;2022-12-05T05:23:54;21.00;;;12.52;;
67902;SDS011;54708;43.612;1.568;2022-12-05T05:26:20;23.60;;;13.73;;
67902;SDS011;54708;43.612;1.568;2022-12-05T05:28:47;18.60;;;12.80;;
67902;SDS011;54708;43.612;1.568;2022-12-05T05:31:13;21.75;;;13.50;;
67902;SDS011;54708;43.612;1.568;2022-12-05T05:33:38;22.80;;;12.85;;
67902;SDS011;54708;43.612;1.568;2022-12-05T05:36:04;19.73;;;11.40;;
67902;SDS011;54708;43.612;1.568;2022-12-05T05:38:38;16.15;;;11.00;;
67902;SDS011;54708;43.612;1.568;2022-12-05T05:41:14;14.85;;;9.98;;
67902;SDS011;54708;43.612;1.568;2022-12-05T05:43:42;15.65;;;11.32;;
67902;SDS011;54708;43.612;1.568;2022-12-05T05:46:08;24.83;;;12.55;;
67902;SDS011;54708;43.612;1.568;2022-12-05T05:48:34;20.92;;;12.32;;
67902;SDS011;54708;43.612;1.568;2022-12-05T05:51:03;19.65;;;11.40;;
67902;SDS011;54708;43.612;1.568;2022-12-05T05:53:30;18.15;;;12.00;;
67902;SDS011;54708;43.612;1.568;2022-12-05T05:55:55;15.45;;;9.05;;
67902;SDS011;54708;43.612;1.568;2022-12-05T05:58:21;13.25;;;9.93;;
67902;SDS011;54708;43.612;1.568;2022-12-05T06:00:46;16.33;;;10.25;;
67902;SDS011;54708;43.612;1.568;2022-12-05T06:03:12;20.08;;;10.70;;
67902;SDS011;54708;43.612;1.568;2022-12-05T06:05:37;15.68;;;10.20;;
67902;SDS011;54708;43.612;1.568;2022-12-05T06:08:03;16.23;;;10.48;;
67902;SDS011;54708;43.612;1.568;2022-12-05T06:10:29;17.50;;;11.10;;
67902;SDS011;54708;43.612;1.568;2022-12-05T06:12:55;14.80;;;10.30;;
67902;SDS011;54708;43.612;1.568;2022-12-05T06:15:21;14.70;;;11.35;;
67902;SDS011;54708;43.612;1.568;2022-12-05T06:17:47;21.88;;;13.38;;
67902;SDS011;54708;43.612;1.568;2022-12-05T06:20:12;20.85;;;13.65;;
67902;SDS011;54708;43.612;1.568;2022-12-05T06:22:39;22.60;;;14.98;;
67902;SDS011;54708;43.612;1.568;2022-12-05T06:25:04;17.88;;;12.25;;
67902;SDS011;54708;43.612;1.568;2022-12-05T06:27:30;19.10;;;11.18;;
67902;SDS011;54708;43.612;1.568;2022-12-05T06:29:56;20.45;;;12.40;;
67902;SDS011;54708;43.612;1.568;2022-12-05T06:32:21;20.10;;;11.75;;
67902;SDS011;54708;43.612;1.568;2022-12-05T06:34:47;17.90;;;12.20;;
67902;SDS011;54708;43.612;1.568;2022-12-05T06:37:12;19.15;;;12.32;;
67902;SDS011;54708;43.612;1.568;2022-12-05T06:39:38;18.05;;;13.10;;
67902;SDS011;54708;43.612;1.568;2022-12-05T06:42:03;24.67;;;12.50;;
67902;SDS011;54708;43.612;1.568;2022-12-05T06:44:29;25.15;;;14.88;;
67902;SDS011;54708;43.612;1.568;2022-12-05T06:46:54;19.65;;;13.00;;
67902;SDS011;54708;43.612;1.568;2022-12-05T06:49:21;27.67;;;17.63;;
67902;SDS011;54708;43.612;1.568;2022-12-05T06:51:47;23.13;;;14.80;;
67902;SDS011;54708;43.612;1.568;2022-12-05T06:54:12;18.90;;;14.05;;
67902;SDS011;54708;43.612;1.568;2022-12-05T06:56:38;17.25;;;11.57;;
67902;SDS011;54708;43.612;1.568;2022-12-05T06:59:03;17.20;;;11.77;;
67902;SDS011;54708;43.612;1.568;2022-12-05T07:01:29;17.65;;;11.57;;
67902;SDS011;54708;43.612;1.568;2022-12-05T07:04:08;19.33;;;12.02;;
67902;SDS011;54708;43.612;1.568;2022-12-05T07:06:50;17.63;;;10.57;;
67902;SDS011;54708;43.612;1.568;2022-12-05T07:09:22;18.48;;;11.45;;
67902;SDS011;54708;43.612;1.568;2022-12-05T07:12:08;18.63;;;11.68;;
67902;SDS011;54708;43.612;1.568;2022-12-05T07:14:33;18.38;;;12.43;;
67902;SDS011;54708;43.612;1.568;2022-12-05T07:16:59;18.65;;;12.35;;
67902;SDS011;54708;43.612;1.568;2022-12-05T07:19:24;17.40;;;12.15;;
67902;SDS011;54708;43.612;1.568;2022-12-05T07:21:50;19.90;;;12.88;;
67902;SDS011;54708;43.612;1.568;2022-12-05T07:24:15;20.05;;;12.38;;
67902;SDS011;54708;43.612;1.568;2022-12-05T07:26:40;29.05;;;18.60;;
67902;SDS011;54708;43.612;1.568;2022-12-05T07:29:06;34.97;;;19.42;;
67902;SDS011;54708;43.612;1.568;2022-12-05T07:31:31;26.63;;;17.98;;
67902;SDS011;54708;43.612;1.568;2022-12-05T07:33:58;22.90;;;15.63;;
67902;SDS011;54708;43.612;1.568;2022-12-05T07:36:23;25.75;;;16.90;;
67902;SDS011;54708;43.612;1.568;2022-12-05T07:38:53;28.27;;;16.67;;
67902;SDS011;54708;43.612;1.568;2022-12-05T07:41:27;23.42;;;15.90;;
67902;SDS011;54708;43.612;1.568;2022-12-05T07:43:55;29.27;;;16.10;;
67902;SDS011;54708;43.612;1.568;2022-12-05T07:46:23;30.27;;;17.70;;
67902;SDS011;54708;43.612;1.568;2022-12-05T07:48:49;23.30;;;15.52;;
67902;SDS011;54708;43.612;1.568;2022-12-05T07:51:15;28.08;;;15.73;;
67902;SDS011;54708;43.612;1.568;2022-12-05T07:53:41;25.02;;;13.20;;
67902;SDS011;54708;43.612;1.568;2022-12-05T07:56:08;17.15;;;11.73;;
67902;SDS011;54708;43.612;1.568;2022-12-05T07:58:35;17.83;;;11.05;;
67902;SDS011;54708;43.612;1.568;2022-12-05T08:01:12;16.90;;;11.02;;
67902;SDS011;54708;43.612;1.568;2022-12-05T08:03:39;24.45;;;15.38;;
67902;SDS011;54708;43.612;1.568;2022-12-05T08:06:27;25.20;;;14.65;;
67902;SDS011;54708;43.612;1.568;2022-12-05T08:08:52;18.25;;;11.32;;
67902;SDS011;54708;43.612;1.568;2022-12-05T08:11:18;30.60;;;18.27;;
67902;SDS011;54708;43.612;1.568;2022-12-05T08:13:48;30.88;;;18.27;;
67902;SDS011;54708;43.612;1.568;2022-12-05T08:16:14;29.63;;;17.33;;
67902;SDS011;54708;43.612;1.568;2022-12-05T08:18:41;26.48;;;15.95;;
67902;SDS011;54708;43.612;1.568;2022-12-05T08:21:08;41.10;;;23.52;;
67902;SDS011;54708;43.612;1.568;2022-12-05T08:23:35;38.85;;;22.30;;
67902;SDS011;54708;43.612;1.568;2022-12-05T08:26:02;32.65;;;19.00;;
67902;SDS011;54708;43.612;1.568;2022-12-05T08:28:28;41.72;;;23.45;;
67902;SDS011;54708;43.612;1.568;2022-12-05T08:30:54;21.33;;;12.50;;
67902;SDS011;54708;43.612;1.568;2022-12-05T08:33:19;18.13;;;9.75;;
67902;SDS011;54708;43.612;1.568;2022-12-05T08:35:44;15.25;;;11.00;;
67902;SDS011;54708;43.612;1.568;2022-12-05T08:38:10;13.75;;;9.68;;
67902;SDS011;54708;43.612;1.568;2022-12-05T08:40:35;12.63;;;9.18;;
67902;SDS011;54708;43.612;1.568;2022-12-05T08:43:00;15.07;;;9.57;;
67902;SDS011;54708;43.612;1.568;2022-12-05T08:45:26;22.50;;;10.52;;
67902;SDS011;54708;43.612;1.568;2022-12-05T08:47:51;16.55;;;10.05;;
67902;SDS011;54708;43.612;1.568;2022-12-05T08:50:16;16.20;;;10.73;;
67902;SDS011;54708;43.612;1.568;2022-12-05T08:52:42;12.63;;;9.98;;
67902;SDS011;54708;43.612;1.568;2022-12-05T08:55:07;15.07;;;10.75;;
67902;SDS011;54708;43.612;1.568;2022-12-05T08:57:33;14.50;;;9.25;;
67902;SDS011;54708;43.612;1.568;2022-12-05T08:59:58;13.27;;;9.43;;
67902;SDS011;54708;43.612;1.568;2022-12-05T09:02:24;11.55;;;8.60;;
67902;SDS011;54708;43.612;1.568;2022-12-05T09:04:49;9.77;;;7.82;;
67902;SDS011;54708;43.612;1.568;2022-12-05T09:07:16;12.82;;;9.10;;
67902;SDS011;54708;43.612;1.568;2022-12-05T09:09:41;13.02;;;10.18;;
67902;SDS011;54708;43.612;1.568;2022-12-05T09:12:06;14.20;;;9.05;;
67902;SDS011;54708;43.612;1.568;2022-12-05T09:14:32;9.52;;;8.05;;
67902;SDS011;54708;43.612;1.568;2022-12-05T09:16:57;10.90;;;7.97;;
67902;SDS011;54708;43.612;1.568;2022-12-05T09:19:23;10.05;;;7.72;;
67902;SDS011;54708;43.612;1.568;2022-12-05T09:21:51;12.27;;;9.52;;
67902;SDS011;54708;43.612;1.568;2022-12-05T09:24:17;10.13;;;7.95;;
67902;SDS011;54708;43.612;1.568;2022-12-05T09:26:42;11.23;;;7.43;;
67902;SDS011;54708;43.612;1.568;2022-12-05T09:29:09;9.48;;;7.38;;
67902;SDS011;54708;43.612;1.568;2022-12-05T09:31:35;10.80;;;7.80;;
67902;SDS011;54708;43.612;1.568;2022-12-05T09:34:01;7.82;;;6.13;;
67902;SDS011;54708;43.612;1.568;2022-12-05T09:36:27;7.38;;;5.68;;
67902;SDS011;54708;43.612;1.568;2022-12-05T09:38:54;8.80;;;6.25;;
67902;SDS011;54708;43.612;1.568;2022-12-05T09:44:40;8.27;;;6.13;;
67902;SDS011;54708;43.612;1.568;2022-12-05T09:52:41;11.90;;;9.25;;
67902;SDS011;54708;43.612;1.568;2022-12-05T09:55:16;28.70;;;19.02;;
67902;SDS011;54708;43.612;1.568;2022-12-05T09:57:44;12.35;;;8.55;;
67902;SDS011;54708;43.612;1.568;2022-12-05T10:00:17;16.33;;;13.80;;
67902;SDS011;54708;43.612;1.568;2022-12-05T10:05:35;8.73;;;7.63;;
67902;SDS011;54708;43.612;1.568;2022-12-05T10:08:06;11.15;;;9.93;;
67902;SDS011;54708;43.612;1.568;2022-12-05T10:10:47;20.75;;;18.55;;
67902;SDS011;54708;43.612;1.568;2022-12-05T10:16:48;15.38;;;13.30;;
67902;SDS011;54708;43.612;1.568;2022-12-05T10:19:11;13.82;;;11.73;;
67902;SDS011;54708;43.612;1.568;2022-12-05T10:21:46;9.48;;;8.45;;
67902;SDS011;54708;43.612;1.568;2022-12-05T10:24:58;10.60;;;9.52;;
67902;SDS011;54708;43.612;1.568;2022-12-05T10:27:09;8.57;;;7.07;;
67902;SDS011;54708;43.612;1.568;2022-12-05T10:29:41;8.15;;;6.28;;
67902;SDS011;54708;43.612;1.568;2022-12-05T10:32:14;7.55;;;6.75;;
67902;SDS011;54708;43.612;1.568;2022-12-05T10:34:42;6.40;;;5.63;;
67902;SDS011;54708;43.612;1.568;2022-12-05T10:37:10;7.28;;;6.45;;
67902;SDS011;54708;43.612;1.568;2022-12-05T10:39:38;7.25;;;4.68;;
67902;SDS011;54708;43.612;1.568;2022-12-05T10:42:04;6.40;;;5.03;;
67902;SDS011;54708;43.612;1.568;2022-12-05T10:44:31;6.75;;;5.43;;
67902;SDS011;54708;43.612;1.568;2022-12-05T10:46:57;6.35;;;5.18;;
67902;SDS011;54708;43.612;1.568;2022-12-05T10:49:23;5.90;;;4.93;;
67902;SDS011;54708;43.612;1.568;2022-12-05T10:51:49;4.63;;;4.18;;
67902;SDS011;54708;43.612;1.568;2022-12-05T10:54:21;4.60;;;4.03;;
67902;SDS011;54708;43.612;1.568;2022-12-05T10:56:49;10.82;;;4.07;;
67902;SDS011;54708;43.612;1.568;2022-12-05T10:59:37;7.00;;;6.18;;
67902;SDS011;54708;43.612;1.568;2022-12-05T11:04:43;7.05;;;5.15;;
67902;SDS011;54708;43.612;1.568;2022-12-05T11:07:20;6.78;;;4.60;;
67902;SDS011;54708;43.612;1.568;2022-12-05T11:09:52;6.70;;;5.07;;
67902;SDS011;54708;43.612;1.568;2022-12-05T11:17:43;6.00;;;4.72;;
67902;SDS011;54708;43.612;1.568;2022-12-05T11:22:51;7.07;;;4.68;;
67902;SDS011;54708;43.612;1.568;2022-12-05T11:27:52;6.57;;;4.88;;
67902;SDS011;54708;43.612;1.568;2022-12-05T11:30:19;9.00;;;5.53;;
67902;SDS011;54708;43.612;1.568;2022-12-05T11:32:46;6.03;;;5.15;;
67902;SDS011;54708;43.612;1.568;2022-12-05T11:35:25;7.10;;;5.28;;
67902;SDS011;54708;43.612;1.568;2022-12-05T11:37:56;10.57;;;4.78;;
67902;SDS011;54708;43.612;1.568;2022-12-05T11:51:49;6.22;;;4.95;;
67902;SDS011;54708;43.612;1.568;2022-12-05T11:57:27;7.88;;;5.43;;
67902;SDS011;54708;43.612;1.568;2022-12-05T12:02:52;7.47;;;4.75;;
67902;SDS011;54708;43.612;1.568;2022-12-05T12:08:10;6.43;;;5.65;;
67902;SDS011;54708;43.612;1.568;2022-12-05T12:13:37;7.50;;;5.38;;
67902;SDS011;54708;43.612;1.568;2022-12-05T12:27:40;6.75;;;4.82;;
67902;SDS011;54708;43.612;1.568;2022-12-05T12:30:20;6.05;;;5.38;;
67902;SDS011;54708;43.612;1.568;2022-12-05T12:40:50;6.70;;;4.93;;
67902;SDS011;54708;43.612;1.568;2022-12-05T12:45:57;12.32;;;6.10;;
67902;SDS011;54708;43.612;1.568;2022-12-05T12:48:50;9.15;;;4.88;;
67902;SDS011;54708;43.612;1.568;2022-12-05T12:51:22;5.68;;;4.82;;
67902;SDS011;54708;43.612;1.568;2022-12-05T12:54:03;8.32;;;4.82;;
67902;SDS011;54708;43.612;1.568;2022-12-05T12:56:40;11.18;;;5.50;;
67902;SDS011;54708;43.612;1.568;2022-12-05T13:02:21;9.57;;;4.72;;
67902;SDS011;54708;43.612;1.568;2022-12-05T13:05:20;7.75;;;5.55;;
67902;SDS011;54708;43.612;1.568;2022-12-05T13:07:52;8.07;;;4.68;;
67902;SDS011;54708;43.612;1.568;2022-12-05T13:10:24;9.85;;;6.43;;
67902;SDS011;54708;43.612;1.568;2022-12-05T13:12:53;6.32;;;5.05;;
67902;SDS011;54708;43.612;1.568;2022-12-05T13:15:23;14.07;;;10.20;;
67902;SDS011;54708;43.612;1.568;2022-12-05T13:17:59;7.68;;;4.55;;
67902;SDS011;54708;43.612;1.568;2022-12-05T13:20:26;5.80;;;4.88;;
67902;SDS011;54708;43.612;1.568;2022-12-05T13:22:56;7.05;;;4.75;;
67902;SDS011;54708;43.612;1.568;2022-12-05T13:25:23;23.75;;;13.38;;
67902;SDS011;54708;43.612;1.568;2022-12-05T13:27:54;8.18;;;6.57;;
67902;SDS011;54708;43.612;1.568;2022-12-05T13:30:21;7.82;;;5.20;;
67902;SDS011;54708;43.612;1.568;2022-12-05T13:32:47;7.40;;;4.70;;
67902;SDS011;54708;43.612;1.568;2022-12-05T13:35:37;6.95;;;4.43;;
67902;SDS011;54708;43.612;1.568;2022-12-05T13:38:22;8.48;;;5.25;;
67902;SDS011;54708;43.612;1.568;2022-12-05T13:41:13;11.45;;;7.55;;
67902;SDS011;54708;43.612;1.568;2022-12-05T13:43:58;8.23;;;6.30;;
67902;SDS011;54708;43.612;1.568;2022-12-05T13:46:33;5.60;;;4.60;;
67902;SDS011;54708;43.612;1.568;2022-12-05T13:49:04;7.30;;;4.97;;
67902;SDS011;54708;43.612;1.568;2022-12-05T13:51:36;9.25;;;6.35;;
67902;SDS011;54708;43.612;1.568;2022-12-05T13:54:09;8.98;;;6.22;;
67902;SDS011;54708;43.612;1.568;2022-12-05T13:56:51;8.60;;;5.70;;
67902;SDS011;54708;43.612;1.568;2022-12-05T14:07:41;10.93;;;9.93;;
67902;SDS011;54708;43.612;1.568;2022-12-05T14:10:12;8.20;;;5.25;;
67902;SDS011;54708;43.612;1.568;2022-12-05T14:15:29;5.40;;;4.38;;
67902;SDS011;54708;43.612;1.568;2022-12-05T14:24:01;7.90;;;5.88;;
67902;SDS011;54708;43.612;1.568;2022-12-05T14:42:06;11.27;;;7.40;;
67902;SDS011;54708;43.612;1.568;2022-12-05T14:44:51;12.43;;;7.28;;
67902;SDS011;54708;43.612;1.568;2022-12-05T14:47:20;13.20;;;7.22;;
67902;SDS011;54708;43.612;1.568;2022-12-05T14:52:25;10.85;;;7.80;;
67902;SDS011;54708;43.612;1.568;2022-12-05T14:54:53;9.93;;;7.20;;
67902;SDS011;54708;43.612;1.568;2022-12-05T14:57:22;9.95;;;7.28;;
67902;SDS011;54708;43.612;1.568;2022-12-05T14:59:53;10.10;;;7.10;;
67902;SDS011;54708;43.612;1.568;2022-12-05T15:04:56;9.90;;;7.88;;
67902;SDS011;54708;43.612;1.568;2022-12-05T15:07:34;7.15;;;6.22;;
67902;SDS011;54708;43.612;1.568;2022-12-05T15:10:03;13.15;;;8.95;;
67902;SDS011;54708;43.612;1.568;2022-12-05T15:12:48;10.30;;;8.25;;
67902;SDS011;54708;43.612;1.568;2022-12-05T15:15:23;11.00;;;7.88;;
67902;SDS011;54708;43.612;1.568;2022-12-05T15:18:38;10.55;;;8.00;;
67902;SDS011;54708;43.612;1.568;2022-12-05T15:20:55;11.00;;;7.70;;
67902;SDS011;54708;43.612;1.568;2022-12-05T15:31:35;6.57;;;4.40;;
67902;SDS011;54708;43.612;1.568;2022-12-05T15:36:59;6.47;;;4.93;;
67902;SDS011;54708;43.612;1.568;2022-12-05T15:39:29;5.07;;;3.85;;
67902;SDS011;54708;43.612;1.568;2022-12-05T15:42:23;5.25;;;3.45;;
67902;SDS011;54708;43.612;1.568;2022-12-05T15:44:50;6.53;;;4.13;;
67902;SDS011;54708;43.612;1.568;2022-12-05T15:47:20;6.85;;;4.00;;
67902;SDS011;54708;43.612;1.568;2022-12-05T15:49:47;5.93;;;3.85;;
67902;SDS011;54708;43.612;1.568;2022-12-05T15:55:28;5.95;;;4.35;;
67902;SDS011;54708;43.612;1.568;2022-12-05T16:00:33;4.78;;;4.32;;
67902;SDS011;54708;43.612;1.568;2022-12-05T16:03:05;9.05;;;5.50;;
67902;SDS011;54708;43.612;1.568;2022-12-05T16:05:38;6.25;;;5.03;;
67902;SDS011;54708;43.612;1.568;2022-12-05T16:08:25;8.30;;;6.10;;
67902;SDS011;54708;43.612;1.568;2022-12-05T16:11:05;11.07;;;7.55;;
67902;SDS011;54708;43.612;1.568;2022-12-05T16:13:34;7.40;;;5.78;;
67902;SDS011;54708;43.612;1.568;2022-12-05T16:15:59;6.00;;;4.47;;
67902;SDS011;54708;43.612;1.568;2022-12-05T16:18:26;10.85;;;6.75;;
67902;SDS011;54708;43.612;1.568;2022-12-05T16:20:54;14.75;;;8.05;;
67902;SDS011;54708;43.612;1.568;2022-12-05T16:23:29;24.35;;;13.98;;
67902;SDS011;54708;43.612;1.568;2022-12-05T16:28:37;22.10;;;13.45;;
67902;SDS011;54708;43.612;1.568;2022-12-05T16:31:03;16.35;;;10.35;;
67902;SDS011;54708;43.612;1.568;2022-12-05T16:33:29;18.70;;;12.63;;
67902;SDS011;54708;43.612;1.568;2022-12-05T16:35:55;21.38;;;12.23;;
67902;SDS011;54708;43.612;1.568;2022-12-05T16:38:34;21.58;;;14.88;;
67902;SDS011;54708;43.612;1.568;2022-12-05T16:41:01;28.00;;;17.98;;
67902;SDS011;54708;43.612;1.568;2022-12-05T16:48:38;16.48;;;10.93;;
67902;SDS011;54708;43.612;1.568;2022-12-05T16:53:40;13.27;;;8.75;;
67902;SDS011;54708;43.612;1.568;2022-12-05T16:56:11;10.40;;;8.45;;
67902;SDS011;54708;43.612;1.568;2022-12-05T16:58:39;10.45;;;8.85;;
67902;SDS011;54708;43.612;1.568;2022-12-05T17:01:04;9.65;;;8.65;;
67902;SDS011;54708;43.612;1.568;2022-12-05T17:03:30;10.15;;;7.20;;
67902;SDS011;54708;43.612;1.568;2022-12-05T17:05:57;12.02;;;8.68;;
67902;SDS011;54708;43.612;1.568;2022-12-05T17:08:22;15.70;;;9.70;;
67902;SDS011;54708;43.612;1.568;2022-12-05T17:10:49;18.92;;;12.32;;
67902;SDS011;54708;43.612;1.568;2022-12-05T17:13:15;36.40;;;20.98;;
67902;SDS011;54708;43.612;1.568;2022-12-05T17:15:42;29.90;;;17.77;;
67902;SDS011;54708;43.612;1.568;2022-12-05T17:18:11;26.80;;;19.58;;
67902;SDS011;54708;43.612;1.568;2022-12-05T17:20:42;24.80;;;15.38;;
67902;SDS011;54708;43.612;1.568;2022-12-05T17:23:10;17.27;;;11.25;;
67902;SDS011;54708;43.612;1.568;2022-12-05T17:25:41;18.95;;;14.63;;
67902;SDS011;54708;43.612;1.568;2022-12-05T17:28:11;22.55;;;14.95;;
67902;SDS011;54708;43.612;1.568;2022-12-05T17:30:40;24.90;;;17.40;;
67902;SDS011;54708;43.612;1.568;2022-12-05T17:33:08;16.67;;;12.00;;
67902;SDS011;54708;43.612;1.568;2022-12-05T17:35:40;16.88;;;12.00;;
67902;SDS011;54708;43.612;1.568;2022-12-05T17:38:07;14.80;;;11.23;;
67902;SDS011;54708;43.612;1.568;2022-12-05T17:40:37;14.18;;;9.63;;
67902;SDS011;54708;43.612;1.568;2022-12-05T17:43:03;15.85;;;10.43;;
67902;SDS011;54708;43.612;1.568;2022-12-05T17:45:28;15.38;;;10.52;;
67902;SDS011;54708;43.612;1.568;2022-12-05T17:47:55;24.50;;;16.45;;